sensor_id;sensor_type;location;lat;lon;timestamp;pressure;altitude;pressure_sealevel;temperature;humidity
59154;BME280;44935;48.944;9.418;2024-02-21T00:01:25;99707.02;;;10.02;44.44
59154;BME280;44935;48.944;9.418;2024-02-21T00:03:53;99703.56;;;8.59;46.69
59154;BME280;44935;48.944;9.418;2024-02-21T00:06:20;99705.96;;;10.08;44.39
59154;BME280;44935;48.944;9.418;2024-02-21T00:08:47;99705.42;;;9.94;44.18
59154;BME280;44935;48.944;9.418;2024-02-21T00:11:13;99709.17;;;9.27;45.30
59154;BME280;44935;48.944;9.418;2024-02-21T00:13:40;99699.94;;;9.20;45.92
59154;BME280;44935;48.944;9.418;2024-02-21T00:16:08;99703.59;;;9.63;45.37
59154;BME280;44935;48.944;9.418;2024-02-21T00:18:36;99701.55;;;9.64;45.44
59154;BME280;44935;48.944;9.418;2024-02-21T00:21:04;99693.27;;;9.87;44.70
59154;BME280;44935;48.944;9.418;2024-02-21T00:23:31;99686.03;;;8.67;45.93
59154;BME280;44935;48.944;9.418;2024-02-21T00:26:00;99680.22;;;9.61;44.48
59154;BME280;44935;48.944;9.418;2024-02-21T00:28:27;99672.13;;;9.25;45.00
59154;BME280;44935;48.944;9.418;2024-02-21T00:30:54;99670.95;;;9.18;45.22
59154;BME280;44935;48.944;9.418;2024-02-21T00:33:21;99658.96;;;9.77;44.29
59154;BME280;44935;48.944;9.418;2024-02-21T00:35:48;99647.64;;;10.11;43.74
59154;BME280;44935;48.944;9.418;2024-02-21T00:38:15;99649.09;;;10.41;42.94
59154;BME280;44935;48.944;9.418;2024-02-21T00:40:43;99652.97;;;9.05;45.37
59154;BME280;44935;48.944;9.418;2024-02-21T00:43:09;99651.52;;;10.46;43.21
59154;BME280;44935;48.944;9.418;2024-02-21T00:45:36;99650.79;;;10.41;43.13
59154;BME280;44935;48.944;9.418;2024-02-21T00:48:04;99645.56;;;10.46;43.20
59154;BME280;44935;48.944;9.418;2024-02-21T00:50:31;99647.24;;;8.32;46.39
59154;BME280;44935;48.944;9.418;2024-02-21T00:52:59;99641.66;;;9.93;44.13
59154;BME280;44935;48.944;9.418;2024-02-21T00:55:26;99641.30;;;10.62;43.02
59154;BME280;44935;48.944;9.418;2024-02-21T00:57:53;99642.98;;;9.04;45.25
59154;BME280;44935;48.944;9.418;2024-02-21T01:00:20;99643.91;;;8.21;46.32
59154;BME280;44935;48.944;9.418;2024-02-21T01:02:47;99638.63;;;9.66;44.74
59154;BME280;44935;48.944;9.418;2024-02-21T01:05:14;99638.19;;;10.31;43.76
59154;BME280;44935;48.944;9.418;2024-02-21T01:07:40;99636.48;;;10.66;43.05
59154;BME280;44935;48.944;9.418;2024-02-21T01:10:08;99630.88;;;10.24;44.23
59154;BME280;44935;48.944;9.418;2024-02-21T01:12:35;99627.94;;;9.65;44.47
59154;BME280;44935;48.944;9.418;2024-02-21T01:15:02;99622.18;;;10.26;44.46
59154;BME280;44935;48.944;9.418;2024-02-21T01:17:29;99620.23;;;9.32;46.09
59154;BME280;44935;48.944;9.418;2024-02-21T01:19:56;99615.27;;;10.03;44.32
59154;BME280;44935;48.944;9.418;2024-02-21T01:22:23;99609.82;;;9.71;44.82
59154;BME280;44935;48.944;9.418;2024-02-21T01:24:49;99608.27;;;10.15;44.18
59154;BME280;44935;48.944;9.418;2024-02-21T01:27:16;99601.89;;;10.20;44.43
59154;BME280;44935;48.944;9.418;2024-02-21T01:29:43;99602.13;;;9.62;45.87
59154;BME280;44935;48.944;9.418;2024-02-21T01:32:11;99595.18;;;10.10;45.21
59154;BME280;44935;48.944;9.418;2024-02-21T01:34:38;99594.33;;;9.93;45.01
59154;BME280;44935;48.944;9.418;2024-02-21T01:37:05;99594.14;;;10.01;45.26
59154;BME280;44935;48.944;9.418;2024-02-21T01:39:31;99590.36;;;9.89;45.42
59154;BME280;44935;48.944;9.418;2024-02-21T01:41:58;99586.41;;;9.81;44.62
59154;BME280;44935;48.944;9.418;2024-02-21T01:44:26;99587.51;;;10.36;44.78
59154;BME280;44935;48.944;9.418;2024-02-21T01:46:53;99582.08;;;10.15;45.00
59154;BME280;44935;48.944;9.418;2024-02-21T01:49:21;99577.70;;;9.50;45.04
59154;BME280;44935;48.944;9.418;2024-02-21T01:51:49;99569.31;;;10.21;44.92
59154;BME280;44935;48.944;9.418;2024-02-21T01:54:17;99565.40;;;10.42;44.48
59154;BME280;44935;48.944;9.418;2024-02-21T01:56:46;99560.98;;;10.07;44.15
59154;BME280;44935;48.944;9.418;2024-02-21T01:59:15;99557.44;;;10.27;44.22
59154;BME280;44935;48.944;9.418;2024-02-21T02:01:43;99552.44;;;10.45;44.20
59154;BME280;44935;48.944;9.418;2024-02-21T02:04:11;99550.25;;;10.51;43.92
59154;BME280;44935;48.944;9.418;2024-02-21T02:06:38;99550.65;;;10.22;43.76
59154;BME280;44935;48.944;9.418;2024-02-21T02:09:05;99547.09;;;10.35;43.84
59154;BME280;44935;48.944;9.418;2024-02-21T02:11:33;99543.06;;;10.30;43.77
59154;BME280;44935;48.944;9.418;2024-02-21T02:14:00;99540.70;;;9.86;44.53
59154;BME280;44935;48.944;9.418;2024-02-21T02:16:27;99541.19;;;10.23;44.56
59154;BME280;44935;48.944;9.418;2024-02-21T02:18:54;99535.59;;;9.91;44.58
59154;BME280;44935;48.944;9.418;2024-02-21T02:21:27;99529.07;;;10.32;45.06
59154;BME280;44935;48.944;9.418;2024-02-21T02:23:56;99517.77;;;10.13;44.74
59154;BME280;44935;48.944;9.418;2024-02-21T02:26:23;99516.02;;;9.84;44.93
59154;BME280;44935;48.944;9.418;2024-02-21T02:28:50;99507.38;;;9.82;45.66
59154;BME280;44935;48.944;9.418;2024-02-21T02:31:17;99504.93;;;9.86;44.90
59154;BME280;44935;48.944;9.418;2024-02-21T02:33:44;99505.32;;;9.90;44.77
59154;BME280;44935;48.944;9.418;2024-02-21T02:36:10;99502.51;;;10.36;44.20
59154;BME280;44935;48.944;9.418;2024-02-21T02:38:37;99500.99;;;10.99;43.21
59154;BME280;44935;48.944;9.418;2024-02-21T02:41:04;99502.42;;;10.33;44.10
59154;BME280;44935;48.944;9.418;2024-02-21T02:43:31;99495.61;;;10.00;44.77
59154;BME280;44935;48.944;9.418;2024-02-21T02:45:58;99492.45;;;10.19;44.67
59154;BME280;44935;48.944;9.418;2024-02-21T02:48:25;99494.16;;;10.10;44.37
59154;BME280;44935;48.944;9.418;2024-02-21T02:50:52;99490.67;;;10.30;45.12
59154;BME280;44935;48.944;9.418;2024-02-21T02:53:19;99496.81;;;10.36;44.47
59154;BME280;44935;48.944;9.418;2024-02-21T02:55:46;99496.58;;;10.19;45.63
59154;BME280;44935;48.944;9.418;2024-02-21T02:58:12;99491.22;;;9.92;46.61
59154;BME280;44935;48.944;9.418;2024-02-21T03:00:39;99488.16;;;9.51;47.15
59154;BME280;44935;48.944;9.418;2024-02-21T03:03:06;99482.33;;;9.28;47.68
59154;BME280;44935;48.944;9.418;2024-02-21T03:05:33;99481.55;;;9.47;47.60
59154;BME280;44935;48.944;9.418;2024-02-21T03:08:00;99482.73;;;9.70;47.20
59154;BME280;44935;48.944;9.418;2024-02-21T03:10:27;99484.85;;;10.16;46.12
59154;BME280;44935;48.944;9.418;2024-02-21T03:12:54;99490.13;;;9.86;46.24
59154;BME280;44935;48.944;9.418;2024-02-21T03:15:20;99485.99;;;10.18;46.15
59154;BME280;44935;48.944;9.418;2024-02-21T03:17:47;99486.46;;;10.05;46.76
59154;BME280;44935;48.944;9.418;2024-02-21T03:20:15;99483.69;;;9.62;47.64
59154;BME280;44935;48.944;9.418;2024-02-21T03:22:42;99479.28;;;9.72;47.01
59154;BME280;44935;48.944;9.418;2024-02-21T03:25:09;99485.65;;;9.74;47.21
59154;BME280;44935;48.944;9.418;2024-02-21T03:27:37;99481.30;;;9.71;47.56
59154;BME280;44935;48.944;9.418;2024-02-21T03:30:05;99465.95;;;9.59;48.07
59154;BME280;44935;48.944;9.418;2024-02-21T03:32:32;99452.94;;;9.48;48.19
59154;BME280;44935;48.944;9.418;2024-02-21T03:34:59;99451.37;;;9.20;48.43
59154;BME280;44935;48.944;9.418;2024-02-21T03:37:26;99444.71;;;9.05;48.59
59154;BME280;44935;48.944;9.418;2024-02-21T03:39:53;99443.43;;;8.88;49.00
59154;BME280;44935;48.944;9.418;2024-02-21T03:42:20;99443.90;;;8.82;49.39
59154;BME280;44935;48.944;9.418;2024-02-21T03:44:47;99447.04;;;8.68;49.62
59154;BME280;44935;48.944;9.418;2024-02-21T03:47:14;99454.90;;;8.50;49.45
59154;BME280;44935;48.944;9.418;2024-02-21T03:49:41;99444.32;;;9.19;48.69
59154;BME280;44935;48.944;9.418;2024-02-21T03:52:07;99442.29;;;9.36;48.11
59154;BME280;44935;48.944;9.418;2024-02-21T03:54:34;99439.33;;;8.59;49.09
59154;BME280;44935;48.944;9.418;2024-02-21T03:57:01;99435.31;;;9.00;48.91
59154;BME280;44935;48.944;9.418;2024-02-21T03:59:28;99432.44;;;9.90;46.28
59154;BME280;44935;48.944;9.418;2024-02-21T04:01:55;99429.83;;;8.45;48.85
59154;BME280;44935;48.944;9.418;2024-02-21T04:04:22;99433.04;;;8.83;47.51
59154;BME280;44935;48.944;9.418;2024-02-21T04:06:49;99432.75;;;8.61;48.46
59154;BME280;44935;48.944;9.418;2024-02-21T04:09:16;99434.72;;;7.89;50.21
59154;BME280;44935;48.944;9.418;2024-02-21T04:11:44;99429.49;;;8.57;48.24
59154;BME280;44935;48.944;9.418;2024-02-21T04:14:10;99430.73;;;8.27;50.09
59154;BME280;44935;48.944;9.418;2024-02-21T04:16:37;99432.56;;;6.29;53.96
59154;BME280;44935;48.944;9.418;2024-02-21T04:19:04;99432.04;;;7.92;51.34
59154;BME280;44935;48.944;9.418;2024-02-21T04:21:31;99427.79;;;6.81;52.54
59154;BME280;44935;48.944;9.418;2024-02-21T04:23:58;99417.19;;;6.71;54.25
59154;BME280;44935;48.944;9.418;2024-02-21T04:26:25;99400.77;;;8.85;49.16
59154;BME280;44935;48.944;9.418;2024-02-21T04:28:51;99395.24;;;9.85;47.46
59154;BME280;44935;48.944;9.418;2024-02-21T04:31:18;99390.24;;;10.27;46.11
59154;BME280;44935;48.944;9.418;2024-02-21T04:33:46;99395.60;;;10.40;45.32
59154;BME280;44935;48.944;9.418;2024-02-21T04:36:13;99399.09;;;10.11;45.77
59154;BME280;44935;48.944;9.418;2024-02-21T04:38:40;99402.26;;;8.94;48.30
59154;BME280;44935;48.944;9.418;2024-02-21T04:41:06;99392.10;;;10.18;46.28
59154;BME280;44935;48.944;9.418;2024-02-21T04:43:33;99390.54;;;9.54;46.31
59154;BME280;44935;48.944;9.418;2024-02-21T04:46:00;99381.95;;;9.38;47.19
59154;BME280;44935;48.944;9.418;2024-02-21T04:48:27;99389.42;;;9.82;46.70
59154;BME280;44935;48.944;9.418;2024-02-21T04:50:54;99386.19;;;9.52;46.62
59154;BME280;44935;48.944;9.418;2024-02-21T04:53:22;99385.45;;;9.98;45.86
59154;BME280;44935;48.944;9.418;2024-02-21T04:55:49;99391.92;;;9.33;46.32
59154;BME280;44935;48.944;9.418;2024-02-21T04:58:16;99391.04;;;9.41;47.20
59154;BME280;44935;48.944;9.418;2024-02-21T05:00:43;99393.13;;;8.88;47.70
59154;BME280;44935;48.944;9.418;2024-02-21T05:03:10;99400.80;;;8.91;47.60
59154;BME280;44935;48.944;9.418;2024-02-21T05:05:37;99401.89;;;9.40;46.84
59154;BME280;44935;48.944;9.418;2024-02-21T05:08:04;99406.43;;;7.58;49.18
59154;BME280;44935;48.944;9.418;2024-02-21T05:10:32;99407.03;;;7.80;49.90
59154;BME280;44935;48.944;9.418;2024-02-21T05:12:59;99401.00;;;7.51;50.62
59154;BME280;44935;48.944;9.418;2024-02-21T05:15:26;99392.74;;;8.46;49.12
59154;BME280;44935;48.944;9.418;2024-02-21T05:17:53;99386.90;;;9.26;47.41
59154;BME280;44935;48.944;9.418;2024-02-21T05:20:20;99390.23;;;9.01;47.22
59154;BME280;44935;48.944;9.418;2024-02-21T05:22:47;99391.06;;;9.35;46.39
59154;BME280;44935;48.944;9.418;2024-02-21T05:25:14;99378.22;;;8.89;46.78
59154;BME280;44935;48.944;9.418;2024-02-21T05:27:41;99365.64;;;8.80;47.40
59154;BME280;44935;48.944;9.418;2024-02-21T05:30:09;99354.25;;;8.42;47.88
59154;BME280;44935;48.944;9.418;2024-02-21T05:32:36;99342.54;;;8.80;47.23
59154;BME280;44935;48.944;9.418;2024-02-21T05:35:03;99335.87;;;8.60;47.26
59154;BME280;44935;48.944;9.418;2024-02-21T05:37:31;99341.68;;;8.82;46.76
59154;BME280;44935;48.944;9.418;2024-02-21T05:39:57;99343.43;;;8.84;46.39
59154;BME280;44935;48.944;9.418;2024-02-21T05:42:24;99333.62;;;9.05;45.94
59154;BME280;44935;48.944;9.418;2024-02-21T05:44:51;99343.57;;;9.54;45.18
59154;BME280;44935;48.944;9.418;2024-02-21T05:47:18;99345.15;;;9.33;45.38
59154;BME280;44935;48.944;9.418;2024-02-21T05:49:45;99342.42;;;6.00;51.66
59154;BME280;44935;48.944;9.418;2024-02-21T05:52:12;99343.24;;;6.62;50.41
59154;BME280;44935;48.944;9.418;2024-02-21T05:54:39;99331.13;;;8.44;47.01
59154;BME280;44935;48.944;9.418;2024-02-21T05:57:07;99335.56;;;6.41;49.80
59154;BME280;44935;48.944;9.418;2024-02-21T05:59:35;99329.19;;;5.43;53.88
59154;BME280;44935;48.944;9.418;2024-02-21T06:02:01;99321.94;;;7.55;49.37
59154;BME280;44935;48.944;9.418;2024-02-21T06:04:28;99319.80;;;5.73;52.75
59154;BME280;44935;48.944;9.418;2024-02-21T06:06:55;99317.88;;;5.77;53.43
59154;BME280;44935;48.944;9.418;2024-02-21T06:09:22;99317.74;;;5.82;54.83
59154;BME280;44935;48.944;9.418;2024-02-21T06:11:49;99322.87;;;7.79;49.10
59154;BME280;44935;48.944;9.418;2024-02-21T06:14:16;99327.96;;;8.35;47.51
59154;BME280;44935;48.944;9.418;2024-02-21T06:16:44;99329.42;;;9.04;46.92
59154;BME280;44935;48.944;9.418;2024-02-21T06:19:11;99330.48;;;8.65;47.13
59154;BME280;44935;48.944;9.418;2024-02-21T06:21:38;99328.26;;;8.72;46.96
59154;BME280;44935;48.944;9.418;2024-02-21T06:24:05;99329.33;;;8.58;47.12
59154;BME280;44935;48.944;9.418;2024-02-21T06:26:32;99328.74;;;8.57;46.74
59154;BME280;44935;48.944;9.418;2024-02-21T06:28:59;99324.18;;;8.51;46.39
59154;BME280;44935;48.944;9.418;2024-02-21T06:31:27;99323.33;;;9.09;45.59
59154;BME280;44935;48.944;9.418;2024-02-21T06:33:55;99323.94;;;8.55;46.25
59154;BME280;44935;48.944;9.418;2024-02-21T06:36:22;99324.31;;;8.28;47.13
59154;BME280;44935;48.944;9.418;2024-02-21T06:38:48;99326.20;;;7.88;47.80
59154;BME280;44935;48.944;9.418;2024-02-21T06:41:15;99329.23;;;7.69;48.11
59154;BME280;44935;48.944;9.418;2024-02-21T06:43:42;99331.36;;;8.08;48.10
59154;BME280;44935;48.944;9.418;2024-02-21T06:46:09;99334.79;;;7.64;47.96
59154;BME280;44935;48.944;9.418;2024-02-21T06:48:36;99338.64;;;7.35;48.42
59154;BME280;44935;48.944;9.418;2024-02-21T06:51:03;99333.18;;;7.68;48.05
59154;BME280;44935;48.944;9.418;2024-02-21T06:53:30;99326.64;;;7.69;47.94
59154;BME280;44935;48.944;9.418;2024-02-21T06:55:57;99324.42;;;5.71;51.33
59154;BME280;44935;48.944;9.418;2024-02-21T06:58:24;99325.75;;;7.48;48.77
59154;BME280;44935;48.944;9.418;2024-02-21T07:00:51;99318.88;;;8.13;47.85
59154;BME280;44935;48.944;9.418;2024-02-21T07:03:18;99318.12;;;8.47;47.20
59154;BME280;44935;48.944;9.418;2024-02-21T07:05:45;99315.19;;;7.53;49.03
59154;BME280;44935;48.944;9.418;2024-02-21T07:08:12;99313.36;;;7.06;48.94
59154;BME280;44935;48.944;9.418;2024-02-21T07:10:38;99313.81;;;8.89;46.90
59154;BME280;44935;48.944;9.418;2024-02-21T07:13:05;99315.77;;;8.94;46.59
59154;BME280;44935;48.944;9.418;2024-02-21T07:15:32;99314.29;;;8.90;46.77
59154;BME280;44935;48.944;9.418;2024-02-21T07:17:59;99310.92;;;8.47;47.04
59154;BME280;44935;48.944;9.418;2024-02-21T07:20:26;99304.42;;;7.91;48.69
59154;BME280;44935;48.944;9.418;2024-02-21T07:22:53;99300.80;;;8.68;47.04
59154;BME280;44935;48.944;9.418;2024-02-21T07:25:20;99298.43;;;8.57;48.15
59154;BME280;44935;48.944;9.418;2024-02-21T07:27:47;99299.37;;;9.10;46.46
59154;BME280;44935;48.944;9.418;2024-02-21T07:30:14;99300.29;;;9.02;46.75
59154;BME280;44935;48.944;9.418;2024-02-21T07:32:40;99303.77;;;8.96;46.58
59154;BME280;44935;48.944;9.418;2024-02-21T07:35:08;99302.62;;;9.03;46.54
59154;BME280;44935;48.944;9.418;2024-02-21T07:37:35;99296.43;;;9.36;46.30
59154;BME280;44935;48.944;9.418;2024-02-21T07:40:03;99297.09;;;9.69;45.60
59154;BME280;44935;48.944;9.418;2024-02-21T07:42:30;99300.23;;;8.97;46.61
59154;BME280;44935;48.944;9.418;2024-02-21T07:44:57;99301.10;;;8.84;46.99
59154;BME280;44935;48.944;9.418;2024-02-21T07:47:24;99295.11;;;9.34;45.82
59154;BME280;44935;48.944;9.418;2024-02-21T07:49:51;99286.70;;;9.47;45.83
59154;BME280;44935;48.944;9.418;2024-02-21T07:52:18;99278.25;;;9.81;45.49
59154;BME280;44935;48.944;9.418;2024-02-21T07:54:45;99272.09;;;8.65;47.59
59154;BME280;44935;48.944;9.418;2024-02-21T07:57:12;99263.68;;;7.57;50.39
59154;BME280;44935;48.944;9.418;2024-02-21T07:59:38;99269.14;;;5.72;53.77
59154;BME280;44935;48.944;9.418;2024-02-21T08:02:06;99263.44;;;6.56;53.69
59154;BME280;44935;48.944;9.418;2024-02-21T08:04:33;99253.73;;;7.11;51.45
59154;BME280;44935;48.944;9.418;2024-02-21T08:07:00;99254.53;;;7.96;51.02
59154;BME280;44935;48.944;9.418;2024-02-21T08:09:27;99254.23;;;8.86;48.69
59154;BME280;44935;48.944;9.418;2024-02-21T08:11:54;99259.14;;;6.58;52.37
59154;BME280;44935;48.944;9.418;2024-02-21T08:14:22;99255.10;;;9.22;47.36
59154;BME280;44935;48.944;9.418;2024-02-21T08:16:49;99247.24;;;9.93;46.50
59154;BME280;44935;48.944;9.418;2024-02-21T08:19:16;99245.65;;;10.33;46.11
59154;BME280;44935;48.944;9.418;2024-02-21T08:21:43;99248.13;;;8.76;49.14
59154;BME280;44935;48.944;9.418;2024-02-21T08:24:10;99243.29;;;7.94;49.00
59154;BME280;44935;48.944;9.418;2024-02-21T08:26:40;99236.90;;;10.18;46.27
59154;BME280;44935;48.944;9.418;2024-02-21T08:29:07;99236.71;;;10.38;45.24
59154;BME280;44935;48.944;9.418;2024-02-21T08:31:34;99238.51;;;10.79;44.35
59154;BME280;44935;48.944;9.418;2024-02-21T08:34:01;99239.27;;;10.59;43.18
59154;BME280;44935;48.944;9.418;2024-02-21T08:36:28;99238.41;;;10.72;43.19
59154;BME280;44935;48.944;9.418;2024-02-21T08:38:54;99239.98;;;10.98;44.49
59154;BME280;44935;48.944;9.418;2024-02-21T08:41:21;99236.49;;;11.22;43.42
59154;BME280;44935;48.944;9.418;2024-02-21T08:43:49;99231.70;;;10.72;44.86
59154;BME280;44935;48.944;9.418;2024-02-21T08:46:17;99230.28;;;11.53;42.74
59154;BME280;44935;48.944;9.418;2024-02-21T08:48:44;99229.14;;;10.66;42.56
59154;BME280;44935;48.944;9.418;2024-02-21T08:51:10;99224.91;;;11.27;43.97
59154;BME280;44935;48.944;9.418;2024-02-21T08:53:37;99216.27;;;11.47;43.25
59154;BME280;44935;48.944;9.418;2024-02-21T08:56:05;99211.83;;;10.44;42.68
59154;BME280;44935;48.944;9.418;2024-02-21T08:58:33;99208.21;;;10.03;42.96
59154;BME280;44935;48.944;9.418;2024-02-21T09:01:00;99204.66;;;9.59;43.33
59154;BME280;44935;48.944;9.418;2024-02-21T09:03:26;99207.91;;;9.45;44.01
59154;BME280;44935;48.944;9.418;2024-02-21T09:05:53;99208.56;;;8.85;45.38
59154;BME280;44935;48.944;9.418;2024-02-21T09:08:20;99203.77;;;9.70;44.32
59154;BME280;44935;48.944;9.418;2024-02-21T09:10:47;99199.45;;;9.19;44.16
59154;BME280;44935;48.944;9.418;2024-02-21T09:13:14;99197.35;;;9.64;43.79
59154;BME280;44935;48.944;9.418;2024-02-21T09:15:42;99197.00;;;9.23;43.86
59154;BME280;44935;48.944;9.418;2024-02-21T09:18:09;99198.78;;;8.89;44.95
59154;BME280;44935;48.944;9.418;2024-02-21T09:20:36;99193.44;;;8.78;45.13
59154;BME280;44935;48.944;9.418;2024-02-21T09:23:04;99187.63;;;9.12;44.95
59154;BME280;44935;48.944;9.418;2024-02-21T09:25:31;99185.01;;;8.92;44.65
59154;BME280;44935;48.944;9.418;2024-02-21T09:27:57;99192.78;;;8.89;44.94
59154;BME280;44935;48.944;9.418;2024-02-21T09:30:24;99190.92;;;9.05;45.55
59154;BME280;44935;48.944;9.418;2024-02-21T09:32:51;99186.21;;;9.87;43.00
59154;BME280;44935;48.944;9.418;2024-02-21T09:35:18;99184.86;;;10.06;43.47
59154;BME280;44935;48.944;9.418;2024-02-21T09:37:45;99179.48;;;10.50;42.60
59154;BME280;44935;48.944;9.418;2024-02-21T09:40:15;99180.95;;;10.81;41.86
59154;BME280;44935;48.944;9.418;2024-02-21T09:42:42;99179.96;;;10.65;41.96
59154;BME280;44935;48.944;9.418;2024-02-21T09:45:20;99179.92;;;10.29;41.96
59154;BME280;44935;48.944;9.418;2024-02-21T09:47:57;99175.35;;;11.02;41.87
59154;BME280;44935;48.944;9.418;2024-02-21T09:50:29;99177.82;;;9.91;43.89
59154;BME280;44935;48.944;9.418;2024-02-21T09:52:59;99171.22;;;10.41;42.95
59154;BME280;44935;48.944;9.418;2024-02-21T09:55:27;99158.89;;;11.15;42.30
59154;BME280;44935;48.944;9.418;2024-02-21T09:57:58;99154.81;;;10.89;40.32
59154;BME280;44935;48.944;9.418;2024-02-21T10:00:26;99151.89;;;11.05;40.12
59154;BME280;44935;48.944;9.418;2024-02-21T10:02:53;99153.62;;;11.31;40.64
59154;BME280;44935;48.944;9.418;2024-02-21T10:05:20;99148.06;;;11.14;41.99
59154;BME280;44935;48.944;9.418;2024-02-21T10:07:47;99149.51;;;9.87;42.09
59154;BME280;44935;48.944;9.418;2024-02-21T10:10:15;99146.56;;;10.84;42.77
59154;BME280;44935;48.944;9.418;2024-02-21T10:12:48;99149.37;;;10.42;42.42
59154;BME280;44935;48.944;9.418;2024-02-21T10:15:20;99146.38;;;11.02;41.17
59154;BME280;44935;48.944;9.418;2024-02-21T10:17:47;99141.46;;;10.67;40.95
59154;BME280;44935;48.944;9.418;2024-02-21T10:20:14;99137.62;;;10.08;41.37
59154;BME280;44935;48.944;9.418;2024-02-21T10:22:40;99138.01;;;10.48;41.34
59154;BME280;44935;48.944;9.418;2024-02-21T10:25:08;99132.33;;;10.15;40.89
59154;BME280;44935;48.944;9.418;2024-02-21T10:27:36;99128.16;;;10.59;41.84
59154;BME280;44935;48.944;9.418;2024-02-21T10:30:04;99122.84;;;10.40;41.55
59154;BME280;44935;48.944;9.418;2024-02-21T10:32:31;99115.40;;;11.22;40.37
59154;BME280;44935;48.944;9.418;2024-02-21T10:35:03;99115.78;;;11.03;39.14
59154;BME280;44935;48.944;9.418;2024-02-21T10:37:29;99105.39;;;10.97;40.48
59154;BME280;44935;48.944;9.418;2024-02-21T10:39:56;99110.58;;;10.55;41.40
59154;BME280;44935;48.944;9.418;2024-02-21T10:42:28;99103.84;;;11.03;40.68
59154;BME280;44935;48.944;9.418;2024-02-21T10:45:01;99098.73;;;11.33;39.43
59154;BME280;44935;48.944;9.418;2024-02-21T10:47:29;99093.75;;;11.98;39.27
59154;BME280;44935;48.944;9.418;2024-02-21T10:50:04;99089.07;;;11.61;40.37
59154;BME280;44935;48.944;9.418;2024-02-21T10:52:38;99087.36;;;10.75;39.83
59154;BME280;44935;48.944;9.418;2024-02-21T10:55:11;99081.71;;;10.85;41.00
59154;BME280;44935;48.944;9.418;2024-02-21T10:57:43;99072.04;;;10.96;39.93
59154;BME280;44935;48.944;9.418;2024-02-21T11:00:10;99066.92;;;10.94;39.15
59154;BME280;44935;48.944;9.418;2024-02-21T11:02:39;99060.45;;;10.89;39.24
59154;BME280;44935;48.944;9.418;2024-02-21T11:05:07;99052.98;;;10.71;39.83
59154;BME280;44935;48.944;9.418;2024-02-21T11:07:37;99054.32;;;10.44;41.10
59154;BME280;44935;48.944;9.418;2024-02-21T11:10:06;99047.28;;;10.42;40.02
59154;BME280;44935;48.944;9.418;2024-02-21T11:12:47;99041.99;;;11.10;39.08
59154;BME280;44935;48.944;9.418;2024-02-21T11:15:15;99037.55;;;11.68;38.65
59154;BME280;44935;48.944;9.418;2024-02-21T11:17:42;99028.47;;;11.09;39.12
59154;BME280;44935;48.944;9.418;2024-02-21T11:20:20;99025.30;;;10.17;40.18
59154;BME280;44935;48.944;9.418;2024-02-21T11:22:48;99013.57;;;11.02;39.60
59154;BME280;44935;48.944;9.418;2024-02-21T11:25:21;99011.58;;;11.27;40.53
59154;BME280;44935;48.944;9.418;2024-02-21T11:27:48;99009.74;;;11.52;39.11
59154;BME280;44935;48.944;9.418;2024-02-21T11:30:15;99001.58;;;11.12;39.43
59154;BME280;44935;48.944;9.418;2024-02-21T11:32:42;98993.72;;;10.79;39.83
59154;BME280;44935;48.944;9.418;2024-02-21T11:35:19;98989.65;;;11.01;38.12
59154;BME280;44935;48.944;9.418;2024-02-21T11:37:46;98982.78;;;12.31;37.71
59154;BME280;44935;48.944;9.418;2024-02-21T11:40:13;98980.25;;;11.49;37.74
59154;BME280;44935;48.944;9.418;2024-02-21T11:42:40;98980.62;;;11.48;39.13
59154;BME280;44935;48.944;9.418;2024-02-21T11:45:08;98976.49;;;12.33;37.81
59154;BME280;44935;48.944;9.418;2024-02-21T11:47:35;98970.14;;;12.68;36.88
59154;BME280;44935;48.944;9.418;2024-02-21T11:50:02;98965.74;;;12.51;36.89
59154;BME280;44935;48.944;9.418;2024-02-21T11:52:28;98960.73;;;12.11;36.13
59154;BME280;44935;48.944;9.418;2024-02-21T11:54:55;98953.04;;;12.77;36.76
59154;BME280;44935;48.944;9.418;2024-02-21T11:57:22;98948.55;;;12.94;34.98
59154;BME280;44935;48.944;9.418;2024-02-21T11:59:51;98938.21;;;13.43;35.42
59154;BME280;44935;48.944;9.418;2024-02-21T12:02:18;98930.06;;;13.72;35.40
59154;BME280;44935;48.944;9.418;2024-02-21T12:04:46;98931.20;;;13.69;35.18
59154;BME280;44935;48.944;9.418;2024-02-21T12:07:14;98927.61;;;13.23;36.36
59154;BME280;44935;48.944;9.418;2024-02-21T12:09:41;98923.85;;;12.47;35.73
59154;BME280;44935;48.944;9.418;2024-02-21T12:12:09;98922.50;;;12.62;35.56
59154;BME280;44935;48.944;9.418;2024-02-21T12:14:36;98915.93;;;12.15;35.51
59154;BME280;44935;48.944;9.418;2024-02-21T12:17:03;98909.34;;;12.35;34.94
59154;BME280;44935;48.944;9.418;2024-02-21T12:19:31;98907.57;;;12.44;36.49
59154;BME280;44935;48.944;9.418;2024-02-21T12:22:00;98906.63;;;12.30;35.24
59154;BME280;44935;48.944;9.418;2024-02-21T12:24:28;98900.53;;;12.42;36.14
59154;BME280;44935;48.944;9.418;2024-02-21T12:26:56;98897.37;;;12.53;34.37
59154;BME280;44935;48.944;9.418;2024-02-21T12:29:24;98889.60;;;12.64;36.62
59154;BME280;44935;48.944;9.418;2024-02-21T12:31:51;98881.86;;;12.67;35.50
59154;BME280;44935;48.944;9.418;2024-02-21T12:34:19;98873.65;;;11.61;37.06
59154;BME280;44935;48.944;9.418;2024-02-21T12:36:46;98874.55;;;12.63;36.80
59154;BME280;44935;48.944;9.418;2024-02-21T12:39:14;98868.55;;;13.51;35.46
59154;BME280;44935;48.944;9.418;2024-02-21T12:41:43;98863.04;;;12.53;37.14
59154;BME280;44935;48.944;9.418;2024-02-21T12:44:10;98859.51;;;13.66;34.95
59154;BME280;44935;48.944;9.418;2024-02-21T12:46:38;98857.34;;;13.34;33.66
59154;BME280;44935;48.944;9.418;2024-02-21T12:49:05;98845.20;;;13.50;34.31
59154;BME280;44935;48.944;9.418;2024-02-21T12:51:33;98841.29;;;13.14;34.87
59154;BME280;44935;48.944;9.418;2024-02-21T12:54:00;98836.55;;;12.54;34.46
59154;BME280;44935;48.944;9.418;2024-02-21T12:56:28;98831.11;;;12.19;35.54
59154;BME280;44935;48.944;9.418;2024-02-21T12:58:55;98823.09;;;12.83;34.40
59154;BME280;44935;48.944;9.418;2024-02-21T13:01:23;98817.56;;;13.08;35.01
59154;BME280;44935;48.944;9.418;2024-02-21T13:03:49;98814.09;;;12.54;34.01
59154;BME280;44935;48.944;9.418;2024-02-21T13:06:16;98807.16;;;13.59;33.94